createdAt,value
2022-09-18T00:00:14.294Z,76946.47
2022-09-18T00:02:40.756Z,76952.59
2022-09-18T00:05:07.562Z,76946.47
2022-09-18T00:07:33.982Z,76946.47
2022-09-18T00:10:00.335Z,76946.47
2022-09-18T00:12:26.729Z,76942.41
2022-09-18T00:14:53.254Z,76948.50
2022-09-18T00:17:19.721Z,76954.63
2022-09-18T00:19:46.190Z,76956.66
2022-09-18T00:22:12.513Z,76956.66
2022-09-18T00:24:38.845Z,76956.66
2022-09-18T00:27:05.321Z,76962.78
2022-09-18T00:29:31.643Z,76962.78
2022-09-18T00:31:59.802Z,76960.72
2022-09-18T00:34:26.192Z,76958.69
2022-09-18T00:36:52.523Z,76960.72
2022-09-18T00:39:18.961Z,76962.78
2022-09-18T00:41:45.431Z,76962.78
2022-09-18T00:44:31.085Z,76960.72
2022-09-18T00:47:09.594Z,76952.59
2022-09-18T00:49:38.835Z,76948.50
2022-09-18T00:52:06.015Z,76952.59
2022-09-18T00:54:42.532Z,76950.53
2022-09-18T00:57:12.711Z,76952.59
2022-09-18T00:59:42.051Z,76946.47
2022-09-18T01:02:09.176Z,76958.69
2022-09-18T01:04:35.561Z,76964.81
2022-09-18T01:07:10.854Z,76950.53
2022-09-18T01:09:54.475Z,76948.50
2022-09-18T01:12:37.596Z,76948.50
2022-09-18T01:15:06.899Z,76938.31
2022-09-18T01:17:49.806Z,76946.47
2022-09-18T01:20:34.977Z,76944.44
2022-09-18T01:23:31.110Z,76940.38
2022-09-18T01:26:23.646Z,76950.53
2022-09-18T01:29:13.869Z,76948.50
2022-09-18T01:31:48.055Z,76950.53
2022-09-18T01:34:41.787Z,76958.69
2022-09-18T01:37:15.503Z,76952.59
2022-09-18T01:40:24.093Z,76950.53
2022-09-18T01:42:53.305Z,76946.47
2022-09-18T01:45:26.295Z,76948.50
2022-09-18T01:47:57.302Z,76954.63
2022-09-18T01:50:28.351Z,76964.81
2022-09-18T01:53:21.304Z,76950.53
2022-09-18T01:55:55.254Z,76964.81
2022-09-18T01:58:24.115Z,76952.59
2022-09-18T02:00:54.090Z,76952.59
2022-09-18T02:03:25.355Z,76952.59
2022-09-18T02:05:56.180Z,76960.72
2022-09-18T02:08:38.557Z,76952.59
2022-09-18T02:11:13.502Z,76954.63
2022-09-18T02:13:45.129Z,76960.72
2022-09-18T02:16:21.647Z,76948.50
2022-09-18T02:18:53.353Z,76958.69
2022-09-18T02:21:25.646Z,76960.72
2022-09-18T02:23:56.727Z,76964.81
2022-09-18T02:26:24.078Z,76958.69
2022-09-18T02:28:50.931Z,76956.66
2022-09-18T02:31:20.281Z,76952.59
2022-09-18T02:33:46.693Z,76946.47
2022-09-18T02:36:31.805Z,76952.59
2022-09-18T02:39:20.157Z,76956.66
2022-09-18T02:42:01.097Z,76950.53
2022-09-18T02:44:55.394Z,76948.50
2022-09-18T02:47:56.231Z,76950.53
2022-09-18T02:50:49.702Z,76948.50
2022-09-18T02:53:34.104Z,76950.53
2022-09-18T02:56:06.430Z,76962.78
2022-09-18T02:58:57.496Z,76950.53
2022-09-18T03:01:26.434Z,76952.59
2022-09-18T03:03:52.843Z,76948.50
2022-09-18T03:06:19.405Z,76948.50
2022-09-18T03:08:46.455Z,76948.50
2022-09-18T03:11:12.850Z,76954.63
2022-09-18T03:13:39.177Z,76952.59
2022-09-18T03:16:05.650Z,76954.63
2022-09-18T03:18:31.982Z,76954.63
2022-09-18T03:20:58.349Z,76960.72
2022-09-18T03:23:24.739Z,76956.66
2022-09-18T03:25:51.770Z,76975.00
2022-09-18T03:28:18.468Z,76958.69
2022-09-18T03:30:45.471Z,76960.72
2022-09-18T03:33:11.870Z,76958.69
2022-09-18T03:35:38.233Z,76960.72
2022-09-18T03:38:05.354Z,76954.63
2022-09-18T03:40:31.732Z,76952.59
2022-09-18T03:42:58.166Z,76952.59
2022-09-18T03:45:24.490Z,76952.59
2022-09-18T03:47:50.895Z,76948.50
2022-09-18T03:50:17.386Z,76952.59
2022-09-18T03:52:45.669Z,76948.50
2022-09-18T03:55:15.886Z,76952.59
2022-09-18T03:57:42.228Z,76944.44
2022-09-18T04:00:09.877Z,76946.47
2022-09-18T04:02:36.268Z,76950.53
2022-09-18T04:05:04.074Z,76952.59
2022-09-18T04:07:30.430Z,76952.59
2022-09-18T04:09:56.742Z,76956.66
2022-09-18T04:12:23.135Z,76952.59
2022-09-18T04:14:49.458Z,76960.72
2022-09-18T04:17:16.559Z,76956.66
2022-09-18T04:19:42.938Z,76954.63
2022-09-18T04:22:09.425Z,76958.69
2022-09-18T04:24:36.315Z,76960.72
2022-09-18T04:27:02.901Z,76954.63
2022-09-18T04:29:29.193Z,76960.72
2022-09-18T04:31:55.529Z,76958.69
2022-09-18T04:34:21.884Z,76960.72
2022-09-18T04:36:48.578Z,76962.78
2022-09-18T04:39:15.068Z,76964.81
2022-09-18T04:41:41.574Z,76979.06
2022-09-18T04:44:07.910Z,76975.00
2022-09-18T04:46:34.359Z,76975.00
2022-09-18T04:49:00.750Z,76977.03
2022-09-18T04:51:27.237Z,76975.00
2022-09-18T04:53:53.559Z,76977.03
2022-09-18T04:56:19.898Z,76975.00
2022-09-18T04:58:46.375Z,76977.03
2022-09-18T05:01:12.808Z,76981.09
2022-09-18T05:03:39.185Z,76981.09
2022-09-18T05:06:05.958Z,76981.09
2022-09-18T05:08:34.393Z,76977.03
2022-09-18T05:11:01.136Z,76979.06
2022-09-18T05:13:27.516Z,76979.06
2022-09-18T05:15:55.854Z,76977.03
2022-09-18T05:18:23.065Z,76964.81
2022-09-18T05:20:49.767Z,76960.72
2022-09-18T05:23:16.188Z,76960.72
2022-09-18T05:25:43.009Z,76954.63
2022-09-18T05:28:09.867Z,76952.59
2022-09-18T05:30:36.473Z,76960.72
2022-09-18T05:33:07.654Z,76968.88
2022-09-18T05:35:35.751Z,76972.97
2022-09-18T05:38:03.995Z,76962.78
2022-09-18T05:40:35.664Z,76948.50
2022-09-18T05:43:05.646Z,76944.44
2022-09-18T05:45:32.262Z,76954.63
2022-09-18T05:48:01.018Z,76956.66
2022-09-18T05:50:28.938Z,76956.66
2022-09-18T05:53:02.350Z,76950.53
2022-09-18T05:55:31.728Z,76940.38
2022-09-18T05:57:59.716Z,76940.38
2022-09-18T06:00:27.421Z,76948.50
2022-09-18T06:03:00.174Z,76946.47
2022-09-18T06:05:28.295Z,76938.31
2022-09-18T06:07:59.530Z,76940.38
2022-09-18T06:10:26.501Z,76938.31
2022-09-18T06:13:03.889Z,76942.41
2022-09-18T06:15:30.343Z,76948.50
2022-09-18T06:17:56.706Z,76946.47
2022-09-18T06:20:23.110Z,76948.50
2022-09-18T06:22:49.474Z,76952.59
2022-09-18T06:25:19.100Z,76952.59
2022-09-18T06:27:45.513Z,76968.88
2022-09-18T06:30:12.448Z,76950.53
2022-09-18T06:32:38.768Z,76950.53
2022-09-18T06:35:05.751Z,76964.81
2022-09-18T06:37:32.111Z,76960.72
2022-09-18T06:39:58.517Z,76948.50
2022-09-18T06:42:24.865Z,76938.31
2022-09-18T06:44:51.179Z,76942.41
2022-09-18T06:47:17.525Z,76938.31
2022-09-18T06:49:43.834Z,76936.28
2022-09-18T06:52:10.167Z,76940.38
2022-09-18T06:54:36.492Z,76936.28
2022-09-18T06:57:02.878Z,76940.38
2022-09-18T06:59:29.327Z,76934.25
2022-09-18T07:01:55.954Z,76924.06
2022-09-18T07:04:22.374Z,76926.09
2022-09-18T07:06:48.692Z,76917.94
2022-09-18T07:09:15.134Z,76905.72
2022-09-18T07:11:41.457Z,76907.75
2022-09-18T07:14:08.293Z,76907.75
2022-09-18T07:16:35.780Z,76905.72
2022-09-18T07:19:02.725Z,76903.69
2022-09-18T07:21:29.410Z,76903.69
2022-09-18T07:23:55.754Z,76907.75
2022-09-18T07:26:22.291Z,76897.59
2022-09-18T07:28:48.885Z,76905.72
2022-09-18T07:31:15.309Z,76911.84
2022-09-18T07:33:41.725Z,76917.94
2022-09-18T07:36:08.241Z,76915.91
2022-09-18T07:38:35.292Z,76907.75
2022-09-18T07:41:02.457Z,76901.66
2022-09-18T07:43:28.903Z,76897.59
2022-09-18T07:45:55.218Z,76889.44
2022-09-18T07:48:21.636Z,76883.31
2022-09-18T07:50:47.977Z,76862.94
2022-09-18T07:53:14.315Z,76862.94
2022-09-18T07:55:42.904Z,76867.03
2022-09-18T07:58:09.488Z,76854.81
2022-09-18T08:00:37.630Z,76852.75
2022-09-18T08:03:06.737Z,76852.75
2022-09-18T08:05:33.221Z,76854.81
2022-09-18T08:08:07.861Z,76858.88
2022-09-18T08:10:35.936Z,76850.72
2022-09-18T08:13:03.750Z,76850.72
2022-09-18T08:15:31.486Z,76848.69
2022-09-18T08:17:58.147Z,76852.75
2022-09-18T08:20:24.747Z,76834.44
2022-09-18T08:22:51.251Z,76824.25
2022-09-18T08:25:18.124Z,76820.16
2022-09-18T08:27:44.922Z,76830.34
2022-09-18T08:30:14.243Z,76818.13
2022-09-18T08:32:40.574Z,76810.00
2022-09-18T08:35:07.335Z,76818.13
2022-09-18T08:37:33.752Z,76824.25
2022-09-18T08:40:00.437Z,76818.13
2022-09-18T08:42:33.299Z,76814.06
2022-09-18T08:45:07.513Z,76830.34
2022-09-18T08:47:41.994Z,76818.13
2022-09-18T08:50:29.042Z,76805.91
2022-09-18T08:53:20.380Z,76793.69
2022-09-18T08:55:49.729Z,76775.34
2022-09-18T08:58:35.323Z,76761.09
2022-09-18T09:01:15.792Z,76759.06
2022-09-18T09:04:00.791Z,76746.84
2022-09-18T09:06:47.587Z,76740.72
2022-09-18T09:09:37.351Z,76750.91
2022-09-18T09:12:09.758Z,76767.22
2022-09-18T09:15:08.536Z,76775.34
2022-09-18T09:17:40.634Z,76795.72
2022-09-18T09:20:36.193Z,76777.41
2022-09-18T09:23:23.096Z,76765.16
2022-09-18T09:25:55.281Z,76755.00
2022-09-18T09:28:38.826Z,76744.81
2022-09-18T09:31:09.102Z,76732.56
2022-09-18T09:34:27.550Z,76726.47
2022-09-18T09:36:58.177Z,76720.34
2022-09-18T09:39:32.704Z,76714.25
2022-09-18T09:42:05.489Z,76726.47
2022-09-18T09:44:40.842Z,76736.66
2022-09-18T09:47:13.319Z,76742.75
2022-09-18T09:50:06.911Z,76738.69
2022-09-18T09:52:33.496Z,76738.69
2022-09-18T09:55:18.462Z,76732.56
2022-09-18T09:58:19.767Z,76732.56
2022-09-18T10:01:10.515Z,76726.47
2022-09-18T10:04:10.689Z,76718.31
2022-09-18T10:07:03.549Z,76722.41
2022-09-18T10:10:12.879Z,76724.44
2022-09-18T10:13:01.560Z,76710.16
2022-09-18T10:15:39.445Z,76714.25
2022-09-18T10:18:26.526Z,76726.47
2022-09-18T10:21:02.326Z,76736.66
2022-09-18T10:23:38.818Z,76736.66
2022-09-18T10:26:06.286Z,76761.09
2022-09-18T10:28:32.930Z,76757.03
2022-09-18T10:30:59.331Z,76757.03
2022-09-18T10:33:39.280Z,76765.16
2022-09-18T10:36:33.399Z,76771.28
2022-09-18T10:39:00.347Z,76767.22
2022-09-18T10:41:30.018Z,76775.34
2022-09-18T10:44:05.725Z,76793.69
2022-09-18T10:46:35.682Z,76785.53
2022-09-18T10:49:20.675Z,76797.75
2022-09-18T10:51:47.072Z,76777.41
2022-09-18T10:54:18.150Z,76755.00
2022-09-18T10:56:45.519Z,76734.63
2022-09-18T10:59:32.776Z,76708.13
2022-09-18T11:02:01.411Z,76687.75
2022-09-18T11:04:29.038Z,76675.53
2022-09-18T11:06:56.932Z,76667.41
2022-09-18T11:09:35.129Z,76673.50
2022-09-18T11:12:01.971Z,76644.97
2022-09-18T11:14:40.418Z,76616.47
2022-09-18T11:17:13.719Z,76608.31
2022-09-18T11:19:40.256Z,76632.75
2022-09-18T11:22:44.170Z,76626.66
2022-09-18T11:25:26.541Z,76628.69
2022-09-18T11:27:58.438Z,76634.81
2022-09-18T11:30:28.281Z,76640.91
2022-09-18T11:33:00.600Z,76636.84
2022-09-18T11:35:29.947Z,76632.75
2022-09-18T11:38:00.501Z,76608.31
2022-09-18T11:40:45.050Z,76594.06
2022-09-18T11:43:16.449Z,76610.34
2022-09-18T11:46:07.487Z,76610.34
2022-09-18T11:48:49.886Z,76622.56
2022-09-18T11:51:36.127Z,76606.28
2022-09-18T11:54:08.284Z,76614.44
2022-09-18T11:56:40.809Z,76600.16
2022-09-18T11:59:29.255Z,76600.16
2022-09-18T12:02:13.900Z,76606.28
2022-09-18T12:04:49.335Z,76620.53
2022-09-18T12:07:40.122Z,76626.66
2022-09-18T12:10:17.433Z,76618.50
2022-09-18T12:13:12.060Z,76624.63
2022-09-18T12:15:41.416Z,76628.69
2022-09-18T12:18:13.079Z,76610.34
2022-09-18T12:20:55.735Z,76630.72
2022-09-18T12:23:24.583Z,76638.88
2022-09-18T12:26:30.112Z,76673.50
2022-09-18T12:29:31.301Z,76677.56
2022-09-18T12:32:03.628Z,76699.97
2022-09-18T12:34:51.451Z,76720.34
2022-09-18T12:37:52.725Z,76752.94
2022-09-18T12:40:35.098Z,76765.16
2022-09-18T12:43:19.770Z,76783.50
2022-09-18T12:45:58.504Z,76807.94
2022-09-18T12:49:03.495Z,76801.84
2022-09-18T12:51:43.177Z,76793.69
2022-09-18T12:54:21.677Z,76807.94
2022-09-18T12:57:15.152Z,76810.00
2022-09-18T13:00:03.154Z,76836.47
2022-09-18T13:02:51.285Z,76850.72
2022-09-18T13:05:35.253Z,76852.75
2022-09-18T13:08:14.658Z,76858.88
2022-09-18T13:10:47.171Z,76871.09
2022-09-18T13:13:40.568Z,76877.22
2022-09-18T13:16:14.492Z,76879.25
2022-09-18T13:18:51.818Z,76885.34
2022-09-18T13:21:27.957Z,76885.34
2022-09-18T13:23:55.372Z,76897.59
2022-09-18T13:26:25.010Z,76885.34
2022-09-18T13:28:51.517Z,76871.09
2022-09-18T13:31:28.444Z,76871.09
2022-09-18T13:34:07.404Z,76862.94
2022-09-18T13:36:37.430Z,76862.94
2022-09-18T13:39:26.951Z,76854.81
2022-09-18T13:41:55.536Z,76846.66
2022-09-18T13:44:35.430Z,76842.56
2022-09-18T13:47:15.944Z,76826.28
2022-09-18T13:49:55.875Z,76820.16
2022-09-18T13:52:29.536Z,76801.84
2022-09-18T13:55:13.555Z,76789.63
2022-09-18T13:57:41.622Z,76787.56
2022-09-18T14:00:20.298Z,76781.47
2022-09-18T14:02:50.977Z,76787.56
2022-09-18T14:05:36.920Z,76783.50
2022-09-18T14:08:24.395Z,76777.41
2022-09-18T14:11:17.311Z,76777.41
2022-09-18T14:13:51.278Z,76779.44
2022-09-18T14:16:21.594Z,76771.28
2022-09-18T14:18:47.960Z,76769.25
2022-09-18T14:21:17.251Z,76769.25
2022-09-18T14:23:46.707Z,76775.34
2022-09-18T14:26:28.343Z,76769.25
2022-09-18T14:28:57.482Z,76765.16
2022-09-18T14:31:31.354Z,76765.16
2022-09-18T14:34:05.282Z,76763.13
2022-09-18T14:36:54.806Z,76761.09
2022-09-18T14:39:31.932Z,76761.09
2022-09-18T14:42:16.896Z,76752.94
2022-09-18T14:44:54.564Z,76750.91
2022-09-18T14:47:26.778Z,76759.06
2022-09-18T14:49:53.893Z,76752.94
2022-09-18T14:52:24.185Z,76763.13
2022-09-18T14:54:53.909Z,76765.16
2022-09-18T14:57:23.850Z,76765.16
2022-09-18T14:59:52.941Z,76769.25
2022-09-18T15:02:34.679Z,76775.34
2022-09-18T15:05:03.852Z,76769.25
2022-09-18T15:07:30.515Z,76773.31
2022-09-18T15:10:00.431Z,76785.53
2022-09-18T15:12:30.542Z,76777.41
2022-09-18T15:14:58.705Z,76773.31
2022-09-18T15:17:27.619Z,76771.28
2022-09-18T15:20:15.962Z,76771.28
2022-09-18T15:22:42.705Z,76769.25
2022-09-18T15:25:16.480Z,76769.25
2022-09-18T15:27:44.937Z,76773.31
2022-09-18T15:30:18.648Z,76777.41
2022-09-18T15:32:51.215Z,76781.47
2022-09-18T15:35:23.700Z,76777.41
2022-09-18T15:38:00.908Z,76785.53
2022-09-18T15:40:33.437Z,76795.72
2022-09-18T15:43:03.373Z,76799.81
2022-09-18T15:45:44.699Z,76799.81
2022-09-18T15:48:33.957Z,76797.75
2022-09-18T15:51:18.377Z,76801.84
2022-09-18T15:54:01.550Z,76814.06
2022-09-18T15:56:29.846Z,76822.22
2022-09-18T15:58:58.795Z,76814.06
2022-09-18T16:01:29.499Z,76838.50
2022-09-18T16:04:07.916Z,76842.56
2022-09-18T16:06:42.529Z,76842.56
2022-09-18T16:09:23.904Z,76848.69
2022-09-18T16:11:50.316Z,76852.75
2022-09-18T16:14:43.929Z,76854.81
2022-09-18T16:17:28.599Z,76856.84
2022-09-18T16:20:00.224Z,76865.00
2022-09-18T16:22:29.582Z,76875.16
2022-09-18T16:24:57.660Z,76875.16
2022-09-18T16:27:25.610Z,76883.31
2022-09-18T16:29:51.951Z,76889.44
2022-09-18T16:32:20.181Z,76889.44
2022-09-18T16:34:47.325Z,76899.63
2022-09-18T16:37:17.005Z,76930.19
2022-09-18T16:39:44.152Z,76960.72
2022-09-18T16:42:18.709Z,76968.88
2022-09-18T16:44:46.007Z,76997.41
2022-09-18T16:47:14.603Z,77007.59
2022-09-18T16:49:46.852Z,77023.88
2022-09-18T16:52:13.819Z,77025.94
2022-09-18T16:54:40.197Z,77042.22
2022-09-18T16:57:12.435Z,77050.38
2022-09-18T16:59:41.783Z,77062.59
2022-09-18T17:02:09.093Z,77050.38
2022-09-18T17:04:35.672Z,77060.56
2022-09-18T17:07:03.300Z,77050.38
2022-09-18T17:09:30.266Z,77064.63
2022-09-18T17:11:56.796Z,77072.78
2022-09-18T17:14:24.350Z,77070.75
2022-09-18T17:16:51.307Z,77074.81
2022-09-18T17:19:18.206Z,77078.88
2022-09-18T17:21:44.753Z,77089.06
2022-09-18T17:24:11.576Z,77087.03
2022-09-18T17:26:39.711Z,77089.06
2022-09-18T17:29:06.323Z,77115.56
2022-09-18T17:31:32.806Z,77115.56
2022-09-18T17:33:59.213Z,77113.53
2022-09-18T17:36:25.561Z,77123.72
2022-09-18T17:38:52.230Z,77127.78
2022-09-18T17:41:19.476Z,77125.75
2022-09-18T17:43:51.511Z,77129.81
2022-09-18T17:46:17.930Z,77131.84
2022-09-18T17:48:44.292Z,77140.00
2022-09-18T17:51:15.292Z,77144.09
2022-09-18T17:53:43.632Z,77150.19
2022-09-18T17:56:14.940Z,77156.31
2022-09-18T17:58:43.896Z,77162.41
2022-09-18T18:01:12.759Z,77162.41
2022-09-18T18:03:39.295Z,77162.41
2022-09-18T18:06:05.998Z,77152.22
2022-09-18T18:08:32.504Z,77152.22
2022-09-18T18:11:07.342Z,77154.28
2022-09-18T18:13:36.800Z,77166.50
2022-09-18T18:16:09.112Z,77156.31
2022-09-18T18:18:37.034Z,77152.22
2022-09-18T18:21:05.203Z,77152.22
2022-09-18T18:23:32.526Z,77150.19
2022-09-18T18:26:04.620Z,77154.28
2022-09-18T18:28:32.664Z,77146.13
2022-09-18T18:31:07.555Z,77119.63
2022-09-18T18:33:36.275Z,77113.53
2022-09-18T18:36:20.854Z,77115.56
2022-09-18T18:38:50.164Z,77113.53
2022-09-18T18:41:19.073Z,77115.56
2022-09-18T18:43:45.766Z,77123.72
2022-09-18T18:46:15.429Z,77105.38
2022-09-18T18:48:43.545Z,77107.41
2022-09-18T18:51:13.971Z,77135.94
2022-09-18T18:53:43.832Z,77125.75
2022-09-18T18:56:13.396Z,77137.97
2022-09-18T18:58:40.800Z,77140.00
2022-09-18T19:01:09.316Z,77129.81
2022-09-18T19:03:39.965Z,77119.63
2022-09-18T19:06:06.692Z,77125.75
2022-09-18T19:08:35.574Z,77125.75
2022-09-18T19:11:04.898Z,77131.84
2022-09-18T19:13:41.206Z,77142.03
2022-09-18T19:16:07.747Z,77140.00
2022-09-18T19:18:34.154Z,77142.03
2022-09-18T19:21:00.497Z,77148.16
2022-09-18T19:23:26.948Z,77156.31
2022-09-18T19:25:57.672Z,77176.69
2022-09-18T19:28:24.326Z,77186.88
2022-09-18T19:30:53.612Z,77201.13
2022-09-18T19:33:21.063Z,77213.34
2022-09-18T19:35:47.382Z,77229.66
2022-09-18T19:38:16.149Z,77233.72
2022-09-18T19:40:42.749Z,77241.88
2022-09-18T19:43:14.810Z,77247.97
2022-09-18T19:45:43.759Z,77254.09
2022-09-18T19:48:21.548Z,77250.03
2022-09-18T19:50:48.075Z,77254.09
2022-09-18T19:53:15.218Z,77258.16
2022-09-18T19:55:47.541Z,77258.16
2022-09-18T19:58:15.575Z,77262.25
2022-09-18T20:00:43.678Z,77272.44
2022-09-18T20:03:10.905Z,77276.50
2022-09-18T20:05:42.313Z,77294.84
2022-09-18T20:08:09.419Z,77278.53
2022-09-18T20:10:37.798Z,77294.84
2022-09-18T20:13:05.202Z,77290.78
2022-09-18T20:15:31.559Z,77303.00
2022-09-18T20:17:58.299Z,77311.13
2022-09-18T20:20:25.960Z,77307.06
2022-09-18T20:22:53.812Z,77315.22
2022-09-18T20:25:20.940Z,77311.13
2022-09-18T20:27:47.521Z,77315.22
2022-09-18T20:30:14.245Z,77321.31
2022-09-18T20:32:41.281Z,77323.38
2022-09-18T20:35:08.001Z,77331.50
2022-09-18T20:37:34.469Z,77339.66
2022-09-18T20:40:04.685Z,77343.75
2022-09-18T20:42:32.644Z,77349.84
2022-09-18T20:45:02.289Z,77353.94
2022-09-18T20:47:34.975Z,77337.63
2022-09-18T20:50:10.032Z,77339.66
2022-09-18T20:52:39.068Z,77343.75
2022-09-18T20:55:14.353Z,77351.88
2022-09-18T20:57:41.715Z,77351.88
2022-09-18T21:00:10.272Z,77364.13
2022-09-18T21:02:37.648Z,77364.13
2022-09-18T21:05:08.590Z,77364.13
2022-09-18T21:07:34.934Z,77366.16
2022-09-18T21:10:01.460Z,77370.22
2022-09-18T21:12:38.132Z,77372.25
2022-09-18T21:15:07.486Z,77370.22
2022-09-18T21:17:33.825Z,77374.28
2022-09-18T21:20:02.076Z,77372.25
2022-09-18T21:22:30.244Z,77378.38
2022-09-18T21:24:56.545Z,77374.28
2022-09-18T21:27:22.946Z,77380.41
2022-09-18T21:29:49.282Z,77386.53
2022-09-18T21:32:15.704Z,77402.81
2022-09-18T21:34:43.850Z,77388.56
2022-09-18T21:37:12.032Z,77390.59
2022-09-18T21:39:38.933Z,77378.38
2022-09-18T21:42:07.279Z,77378.38
2022-09-18T21:44:37.768Z,77392.63
2022-09-18T21:47:07.310Z,77374.28
2022-09-18T21:49:34.506Z,77372.25
2022-09-18T21:52:04.431Z,77372.25
2022-09-18T21:54:31.863Z,77366.16
2022-09-18T21:56:59.004Z,77370.22
2022-09-18T21:59:35.841Z,77364.13
2022-09-18T22:02:03.377Z,77351.88
2022-09-18T22:04:32.318Z,77347.81
2022-09-18T22:07:01.302Z,77347.81
2022-09-18T22:09:30.894Z,77345.78
2022-09-18T22:11:58.205Z,77341.69
2022-09-18T22:14:28.567Z,77333.56
2022-09-18T22:16:56.261Z,77343.75
2022-09-18T22:19:22.933Z,77347.81
2022-09-18T22:21:50.626Z,77349.84
2022-09-18T22:24:20.736Z,77347.81
2022-09-18T22:27:08.409Z,77343.75
2022-09-18T22:29:38.248Z,77333.56
2022-09-18T22:32:05.070Z,77329.47
2022-09-18T22:34:34.712Z,77331.50
2022-09-18T22:37:01.616Z,77329.47
2022-09-18T22:39:28.585Z,77327.44
2022-09-18T22:41:55.222Z,77345.78
2022-09-18T22:44:22.525Z,77337.63
2022-09-18T22:46:51.856Z,77337.63
2022-09-18T22:49:19.248Z,77347.81
2022-09-18T22:51:46.111Z,77339.66
2022-09-18T22:54:13.966Z,77345.78
2022-09-18T22:56:46.073Z,77351.88
2022-09-18T22:59:15.210Z,77353.94
2022-09-18T23:01:48.855Z,77349.84
2022-09-18T23:04:17.937Z,77351.88
2022-09-18T23:06:45.584Z,77360.03
2022-09-18T23:09:13.762Z,77349.84
2022-09-18T23:11:41.530Z,77349.84
2022-09-18T23:14:13.807Z,77341.69
2022-09-18T23:16:40.260Z,77345.78
2022-09-18T23:19:11.849Z,77341.69
2022-09-18T23:21:39.105Z,77341.69
2022-09-18T23:24:09.065Z,77329.47
2022-09-18T23:26:39.932Z,77329.47
2022-09-18T23:29:09.696Z,77333.56
2022-09-18T23:31:38.725Z,77343.75
2022-09-18T23:34:07.841Z,77339.66
2022-09-18T23:36:40.026Z,77333.56
2022-09-18T23:39:15.836Z,77335.59
2022-09-18T23:41:42.638Z,77335.59
2022-09-18T23:44:12.381Z,77333.56
2022-09-18T23:46:39.324Z,77329.47
2022-09-18T23:49:08.321Z,77327.44
2022-09-18T23:51:37.469Z,77331.50
2022-09-18T23:54:05.651Z,77331.50
2022-09-18T23:56:37.034Z,77333.56
2022-09-18T23:59:06.421Z,77333.56
